Time,TemperatureF,DewpointF,PressureIn,WindDirection,WindDirectionDegrees,WindSpeedMPH,WindSpeedGustMPH,Humidity,HourlyPrecipIn,Conditions,Clouds,dailyrainin,SoftwareType,DateUTC
2013-11-04 00:12:00,32.9,22.0,30.41,NW,313,0.0,1.0,65,0.00,,,0.00,weatherlink.com 1.10,2013-11-04 05:12:00,
2013-11-04 00:27:00,32.8,22.0,30.41,West,261,0.0,3.0,65,0.00,,,0.00,weatherlink.com 1.10,2013-11-04 05:27:00,
2013-11-04 00:42:00,32.9,22.0,30.42,ENE,77,0.0,2.0,64,0.00,,,0.00,weatherlink.com 1.10,2013-11-04 05:42:00,
2013-11-04 00:58:00,33.3,22.0,30.42,NNE,17,0.0,5.0,63,0.00,,,0.00,weatherlink.com 1.10,2013-11-04 05:58:00,
2013-11-04 01:13:00,33.4,22.0,30.43,East,83,1.0,4.0,63,0.00,,,0.00,weatherlink.com 1.10,2013-11-04 06:13:00,
2013-11-04 01:28:00,33.3,22.0,30.43,East,84,0.0,2.0,63,0.00,,,0.00,weatherlink.com 1.10,2013-11-04 06:28:00,
2013-11-04 01:43:00,33.4,21.0,30.44,NNW,327,0.0,4.0,61,0.00,,,0.00,weatherlink.com 1.10,2013-11-04 06:43:00,
2013-11-04 01:58:00,33.4,21.0,30.45,North,11,3.0,4.0,60,0.00,,,0.00,weatherlink.com 1.10,2013-11-04 06:58:00,
2013-11-04 02:13:00,33.3,21.0,30.46,NW,325,0.0,2.0,61,0.00,,,0.00,weatherlink.com 1.10,2013-11-04 07:13:00,
2013-11-04 02:28:00,32.9,21.0,30.46,ESE,115,0.0,6.0,61,0.00,,,0.00,weatherlink.com 1.10,2013-11-04 07:28:00,
2013-11-04 02:43:00,32.6,20.0,30.46,NW,310,0.0,3.0,61,0.00,,,0.00,weatherlink.com 1.10,2013-11-04 07:43:00,
2013-11-04 02:58:00,32.3,20.0,30.46,NW,314,0.0,2.0,62,0.00,,,0.00,weatherlink.com 1.10,2013-11-04 07:58:00,
2013-11-04 03:13:00,32.0,20.0,30.47,WNW,297,0.0,3.0,62,0.00,,,0.00,weatherlink.com 1.10,2013-11-04 08:13:00,
2013-11-04 03:28:00,31.8,20.0,30.47,NNW,340,2.0,3.0,62,0.00,,,0.00,weatherlink.com 1.10,2013-11-04 08:28:00,
2013-11-04 03:43:00,32.0,20.0,30.47,ESE,115,0.0,2.0,62,0.00,,,0.00,weatherlink.com 1.10,2013-11-04 08:43:00,
2013-11-04 03:58:00,31.9,20.0,30.48,NW,321,0.0,3.0,62,0.00,,,0.00,weatherlink.com 1.10,2013-11-04 08:58:00,
2013-11-04 04:13:00,31.6,20.0,30.48,WNW,295,0.0,2.0,63,0.00,,,0.00,weatherlink.com 1.10,2013-11-04 09:13:00,
2013-11-04 04:28:00,31.3,20.0,30.49,NW,305,0.0,2.0,63,0.00,,,0.00,weatherlink.com 1.10,2013-11-04 09:28:00,
2013-11-04 04:43:00,31.2,20.0,30.49,NE,46,0.0,1.0,64,0.00,,,0.00,weatherlink.com 1.10,2013-11-04 09:43:00,
2013-11-04 04:58:00,31.0,20.0,30.50,NE,49,0.0,1.0,64,0.00,,,0.00,weatherlink.com 1.10,2013-11-04 09:58:00,
2013-11-04 05:13:00,30.8,20.0,30.51,ENE,62,0.0,0.0,65,0.00,,,0.00,weatherlink.com 1.10,2013-11-04 10:13:00,
2013-11-04 05:28:00,30.5,20.0,30.51,NE,42,0.0,2.0,65,0.00,,,0.00,weatherlink.com 1.10,2013-11-04 10:28:00,
2013-11-04 05:43:00,30.2,20.0,30.51,NE,46,0.0,1.0,66,0.00,,,0.00,weatherlink.com 1.10,2013-11-04 10:43:00,
2013-11-04 05:58:00,29.8,20.0,30.52,NE,46,0.0,1.0,67,0.00,,,0.00,weatherlink.com 1.10,2013-11-04 10:58:00,
2013-11-04 06:13:00,29.5,20.0,30.53,NE,46,0.0,0.0,68,0.00,,,0.00,weatherlink.com 1.10,2013-11-04 11:13:00,
2013-11-04 06:28:00,29.0,20.0,30.53,NE,46,0.0,0.0,69,0.00,,,0.00,weatherlink.com 1.10,2013-11-04 11:28:00,
2013-11-04 06:43:00,28.8,20.0,30.53,NE,46,0.0,1.0,70,0.00,,,0.00,weatherlink.com 1.10,2013-11-04 11:43:00,
2013-11-04 06:58:00,29.0,20.0,30.54,ENE,62,0.0,0.0,69,0.00,,,0.00,weatherlink.com 1.10,2013-11-04 11:58:00,
2013-11-04 07:13:00,29.6,21.0,30.54,ENE,62,0.0,1.0,69,0.00,,,0.00,weatherlink.com 1.10,2013-11-04 12:13:00,
2013-11-04 07:28:00,30.7,21.0,30.55,ENE,68,2.0,2.0,66,0.00,,,0.00,weatherlink.com 1.10,2013-11-04 12:28:00,
2013-11-04 07:43:00,32.3,21.0,30.55,West,264,0.0,4.0,63,0.00,,,0.00,weatherlink.com 1.10,2013-11-04 12:43:00,
2013-11-04 07:58:00,33.8,20.0,30.57,East,83,1.0,6.0,58,0.00,,,0.00,weatherlink.com 1.10,2013-11-04 12:58:00,
2013-11-04 08:14:00,35.2,20.0,30.57,NNE,22,1.0,8.0,54,0.00,,,0.00,weatherlink.com 1.10,2013-11-04 13:14:00,
2013-11-04 08:29:00,36.1,19.0,30.57,South,182,1.0,5.0,51,0.00,,,0.00,weatherlink.com 1.10,2013-11-04 13:29:00,
2013-11-04 08:44:00,38.2,19.0,30.57,NNW,334,2.0,4.0,47,0.00,,,0.00,weatherlink.com 1.10,2013-11-04 13:44:00,
2013-11-04 08:59:00,39.3,19.0,30.57,ENE,71,1.0,8.0,44,0.00,,,0.00,weatherlink.com 1.10,2013-11-04 13:59:00,
2013-11-04 09:14:00,38.9,19.0,30.57,ESE,110,3.0,6.0,45,0.00,,,0.00,weatherlink.com 1.10,2013-11-04 14:14:00,
2013-11-04 09:29:00,39.1,19.0,30.58,ESE,114,2.0,5.0,45,0.00,,,0.00,weatherlink.com 1.10,2013-11-04 14:29:00,
2013-11-04 09:44:00,39.6,20.0,30.59,SE,130,0.0,5.0,45,0.00,,,0.00,weatherlink.com 1.10,2013-11-04 14:44:00,
2013-11-04 09:59:00,39.7,19.0,30.59,WSW,242,0.0,5.0,44,0.00,,,0.00,weatherlink.com 1.10,2013-11-04 14:59:00,
2013-11-04 10:14:00,41.3,20.0,30.58,North,355,0.0,4.0,42,0.00,,,0.00,weatherlink.com 1.10,2013-11-04 15:14:00,
2013-11-04 10:29:00,42.8,20.0,30.58,NNW,327,3.0,6.0,40,0.00,,,0.00,weatherlink.com 1.10,2013-11-04 15:29:00,
2013-11-04 10:44:00,44.0,20.0,30.57,NNW,338,1.0,6.0,38,0.00,,,0.00,weatherlink.com 1.10,2013-11-04 15:44:00,
2013-11-04 10:59:00,44.7,19.0,30.57,East,98,2.0,6.0,36,0.00,,,0.00,weatherlink.com 1.10,2013-11-04 15:59:00,
2013-11-04 11:14:00,44.9,20.0,30.56,ENE,67,2.0,5.0,37,0.00,,,0.00,weatherlink.com 1.10,2013-11-04 16:14:00,
2013-11-04 11:29:00,44.2,19.0,30.57,NNE,28,1.0,4.0,37,0.00,,,0.00,weatherlink.com 1.10,2013-11-04 16:29:00,
2013-11-04 11:44:00,43.7,18.0,30.56,North,5,2.0,5.0,36,0.00,,,0.00,weatherlink.com 1.10,2013-11-04 16:44:00,
2013-11-04 11:59:00,44.0,18.0,30.56,SSE,167,0.0,6.0,36,0.00,,,0.00,weatherlink.com 1.10,2013-11-04 16:59:00,
2013-11-04 12:14:00,44.3,18.0,30.56,East,96,3.0,6.0,35,0.00,,,0.00,weatherlink.com 1.10,2013-11-04 17:14:00,
2013-11-04 12:29:00,44.9,19.0,30.56,ENE,61,0.0,5.0,35,0.00,,,0.00,weatherlink.com 1.10,2013-11-04 17:29:00,
2013-11-04 12:44:00,44.3,18.0,30.56,SE,125,1.0,6.0,35,0.00,,,0.00,weatherlink.com 1.10,2013-11-04 17:44:00,
2013-11-04 12:59:00,44.1,19.0,30.55,ENE,73,1.0,5.0,36,0.00,,,0.00,weatherlink.com 1.10,2013-11-04 17:59:00,
2013-11-04 13:14:00,44.1,19.0,30.55,NW,325,2.0,4.0,36,0.00,,,0.00,weatherlink.com 1.10,2013-11-04 18:14:00,
2013-11-04 13:29:00,44.5,19.0,30.55,ESE,123,1.0,3.0,36,0.00,,,0.00,weatherlink.com 1.10,2013-11-04 18:29:00,
2013-11-04 13:44:00,44.9,19.0,30.54,ESE,119,0.0,4.0,36,0.00,,,0.00,weatherlink.com 1.10,2013-11-04 18:44:00,
2013-11-04 13:59:00,45.0,19.0,30.55,North,350,0.0,3.0,35,0.00,,,0.00,weatherlink.com 1.10,2013-11-04 18:59:00,
2013-11-04 14:14:00,45.3,19.0,30.55,East,86,1.0,4.0,35,0.00,,,0.00,weatherlink.com 1.10,2013-11-04 19:14:00,
2013-11-04 14:29:00,45.3,19.0,30.55,ESE,122,1.0,3.0,35,0.00,,,0.00,weatherlink.com 1.10,2013-11-04 19:29:00,
2013-11-04 14:44:00,45.2,18.0,30.56,NW,322,0.0,4.0,34,0.00,,,0.00,weatherlink.com 1.10,2013-11-04 19:44:00,
2013-11-04 14:59:00,45.0,18.0,30.55,South,178,0.0,4.0,34,0.00,,,0.00,weatherlink.com 1.10,2013-11-04 19:59:00,
2013-11-04 15:14:00,45.3,20.0,30.55,East,86,0.0,2.0,36,0.00,,,0.00,weatherlink.com 1.10,2013-11-04 20:14:00,
2013-11-04 15:29:00,45.4,19.0,30.55,East,91,0.0,3.0,35,0.00,,,0.00,weatherlink.com 1.10,2013-11-04 20:29:00,
2013-11-04 15:44:00,44.9,19.0,30.55,SE,135,1.0,3.0,36,0.00,,,0.00,weatherlink.com 1.10,2013-11-04 20:44:00,
2013-11-04 15:59:00,44.5,19.0,30.55,SE,138,0.0,3.0,36,0.00,,,0.00,weatherlink.com 1.10,2013-11-04 20:59:00,
2013-11-04 16:14:00,44.2,19.0,30.56,South,173,0.0,2.0,36,0.00,,,0.00,weatherlink.com 1.10,2013-11-04 21:14:00,
2013-11-04 16:29:00,43.7,18.0,30.57,ENE,74,0.0,2.0,36,0.00,,,0.00,weatherlink.com 1.10,2013-11-04 21:29:00,
2013-11-04 16:44:00,43.2,18.0,30.57,ENE,74,0.0,2.0,37,0.00,,,0.00,weatherlink.com 1.10,2013-11-04 21:44:00,
2013-11-04 16:59:00,42.5,19.0,30.57,ENE,74,0.0,0.0,39,0.00,,,0.00,weatherlink.com 1.10,2013-11-04 21:59:00,
2013-11-04 17:14:00,41.5,20.0,30.57,ENE,74,0.0,0.0,43,0.00,,,0.00,weatherlink.com 1.10,2013-11-04 22:14:00,
2013-11-04 17:29:00,40.6,22.0,30.58,ENE,74,0.0,0.0,47,0.00,,,0.00,weatherlink.com 1.10,2013-11-04 22:29:00,
2013-11-04 17:44:00,39.8,22.0,30.58,ENE,74,0.0,0.0,50,0.00,,,0.00,weatherlink.com 1.10,2013-11-04 22:44:00,
2013-11-04 17:59:00,39.1,22.0,30.58,ENE,74,0.0,0.0,51,0.00,,,0.00,weatherlink.com 1.10,2013-11-04 22:59:00,
2013-11-04 18:14:00,38.5,23.0,30.58,ENE,74,0.0,0.0,54,0.00,,,0.00,weatherlink.com 1.10,2013-11-04 23:14:00,
2013-11-04 18:29:00,38.0,23.0,30.58,ENE,74,0.0,0.0,56,0.00,,,0.00,weatherlink.com 1.10,2013-11-04 23:29:00,
2013-11-04 18:44:00,37.6,24.0,30.58,ENE,74,0.0,0.0,58,0.00,,,0.00,weatherlink.com 1.10,2013-11-04 23:44:00,
2013-11-04 18:59:00,37.1,25.0,30.58,ENE,74,0.0,0.0,61,0.00,,,0.00,weatherlink.com 1.10,2013-11-04 23:59:00,
2013-11-04 19:14:00,36.5,25.0,30.59,ENE,74,0.0,0.0,63,0.00,,,0.00,weatherlink.com 1.10,2013-11-05 00:14:00,
2013-11-04 19:29:00,36.2,25.0,30.58,ENE,74,0.0,0.0,65,0.00,,,0.00,weatherlink.com 1.10,2013-11-05 00:29:00,
2013-11-04 19:44:00,36.1,25.0,30.58,ENE,74,0.0,0.0,65,0.00,,,0.00,weatherlink.com 1.10,2013-11-05 00:44:00,
2013-11-04 19:59:00,36.0,26.0,30.58,ENE,74,0.0,0.0,66,0.00,,,0.00,weatherlink.com 1.10,2013-11-05 00:59:00,
2013-11-04 20:29:00,35.2,26.0,30.59,ENE,74,0.0,0.0,68,0.00,,,0.00,weatherlink.com 1.10,2013-11-05 01:29:00,
2013-11-04 20:45:00,34.7,26.0,30.60,ENE,74,0.0,0.0,70,0.00,,,0.00,weatherlink.com 1.10,2013-11-05 01:45:00,
2013-11-04 21:00:00,34.2,26.0,30.60,ENE,74,0.0,0.0,71,0.00,,,0.00,weatherlink.com 1.10,2013-11-05 02:00:00,
2013-11-04 21:15:00,33.8,25.0,30.60,ENE,74,0.0,0.0,71,0.00,,,0.00,weatherlink.com 1.10,2013-11-05 02:15:00,
2013-11-04 21:30:00,33.6,25.0,30.60,ENE,74,0.0,0.0,72,0.00,,,0.00,weatherlink.com 1.10,2013-11-05 02:30:00,
2013-11-04 21:45:00,33.4,25.0,30.60,ENE,74,0.0,0.0,72,0.00,,,0.00,weatherlink.com 1.10,2013-11-05 02:45:00,
2013-11-04 22:00:00,33.3,26.0,30.61,ENE,74,0.0,0.0,74,0.00,,,0.00,weatherlink.com 1.10,2013-11-05 03:00:00,
2013-11-04 22:15:00,33.6,26.0,30.61,ENE,74,0.0,0.0,73,0.00,,,0.00,weatherlink.com 1.10,2013-11-05 03:15:00,
2013-11-04 22:30:00,33.5,26.0,30.61,ENE,74,0.0,0.0,74,0.00,,,0.00,weatherlink.com 1.10,2013-11-05 03:30:00,
2013-11-04 22:45:00,33.5,26.0,30.60,ENE,74,0.0,0.0,74,0.00,,,0.00,weatherlink.com 1.10,2013-11-05 03:45:00,
2013-11-04 23:00:00,33.7,27.0,30.59,ENE,74,0.0,0.0,75,0.00,,,0.00,weatherlink.com 1.10,2013-11-05 04:00:00,
2013-11-04 23:15:00,33.5,26.0,30.59,ENE,74,0.0,0.0,75,0.00,,,0.00,weatherlink.com 1.10,2013-11-05 04:15:00,
2013-11-04 23:30:00,33.5,27.0,30.59,ENE,74,0.0,0.0,76,0.00,,,0.00,weatherlink.com 1.10,2013-11-05 04:30:00,
2013-11-04 23:45:00,33.4,27.0,30.60,ENE,74,0.0,0.0,76,0.00,,,0.00,weatherlink.com 1.10,2013-11-05 04:45:00,